createdAt,value
2023-04-02T00:01:18.890Z,96.89
2023-04-02T00:03:45.458Z,97.18
2023-04-02T00:06:30.440Z,96.63
2023-04-02T00:08:59.494Z,97.65
2023-04-02T00:11:37.481Z,96.90
2023-04-02T00:14:21.889Z,96.86
2023-04-02T00:16:48.803Z,96.64
2023-04-02T00:19:23.163Z,96.93
2023-04-02T00:21:50.809Z,96.43
2023-04-02T00:24:20.656Z,96.73
2023-04-02T00:26:50.362Z,96.82
2023-04-02T00:29:18.569Z,97.00
2023-04-02T00:31:49.057Z,96.83
2023-04-02T00:34:23.453Z,96.76
2023-04-02T00:36:51.020Z,96.08
2023-04-02T00:39:25.723Z,96.59
2023-04-02T00:42:04.669Z,96.85
2023-04-02T00:44:38.560Z,96.58
2023-04-02T00:47:31.887Z,96.26
2023-04-02T00:50:18.268Z,97.01
2023-04-02T00:52:48.680Z,96.50
2023-04-02T00:55:21.410Z,96.21
2023-04-02T00:57:49.636Z,96.40
2023-04-02T01:00:31.314Z,95.58
2023-04-02T01:03:16.637Z,96.08
2023-04-02T01:05:50.242Z,96.23
2023-04-02T01:08:41.854Z,95.58
2023-04-02T01:11:39.623Z,96.16
2023-04-02T01:14:27.712Z,95.93
2023-04-02T01:17:10.709Z,95.64
2023-04-02T01:20:01.793Z,95.25
2023-04-02T01:22:48.295Z,95.72
2023-04-02T01:25:26.579Z,95.78
2023-04-02T01:28:33.623Z,95.70
2023-04-02T01:31:02.536Z,95.60
2023-04-02T01:33:31.194Z,95.40
2023-04-02T01:36:08.016Z,94.63
2023-04-02T01:38:47.727Z,94.85
2023-04-02T01:41:46.260Z,94.62
2023-04-02T01:44:17.092Z,95.43
2023-04-02T01:46:44.792Z,94.84
2023-04-02T01:49:14.866Z,94.35
2023-04-02T01:51:51.645Z,94.32
2023-04-02T01:54:20.609Z,94.64
2023-04-02T01:56:47.723Z,94.50
2023-04-02T01:59:18.320Z,94.33
2023-04-02T02:02:02.989Z,94.00
2023-04-02T02:04:32.272Z,94.54
2023-04-02T02:07:03.239Z,94.27
2023-04-02T02:09:35.645Z,94.95
2023-04-02T02:12:04.039Z,94.33
2023-04-02T02:14:31.811Z,94.32
2023-04-02T02:17:02.384Z,94.78
2023-04-02T02:19:36.746Z,94.69
2023-04-02T02:22:18.949Z,94.96
2023-04-02T02:24:45.742Z,94.60
2023-04-02T02:27:24.411Z,94.41
2023-04-02T02:30:14.039Z,94.03
2023-04-02T02:32:47.849Z,93.87
2023-04-02T02:35:21.608Z,94.64
2023-04-02T02:37:57.224Z,94.20
2023-04-02T02:40:34.346Z,94.34
2023-04-02T02:43:04.441Z,93.93
2023-04-02T02:45:38.802Z,94.53
2023-04-02T02:48:12.780Z,94.76
2023-04-02T02:50:41.368Z,94.90
2023-04-02T02:53:26.860Z,94.23
2023-04-02T02:56:01.191Z,94.65
2023-04-02T02:58:34.369Z,94.58
2023-04-02T03:01:18.674Z,93.85
2023-04-02T03:03:47.624Z,94.54
2023-04-02T03:06:17.074Z,94.59
2023-04-02T03:09:19.622Z,94.40
2023-04-02T03:12:06.579Z,94.16
2023-04-02T03:14:38.037Z,93.66
2023-04-02T03:17:16.149Z,94.04
2023-04-02T03:19:42.531Z,94.16
2023-04-02T03:22:46.336Z,93.51
2023-04-02T03:25:30.498Z,94.57
2023-04-02T03:28:06.107Z,94.32
2023-04-02T03:30:44.579Z,93.48
2023-04-02T03:33:17.429Z,93.51
2023-04-02T03:35:57.801Z,93.30
2023-04-02T03:38:26.976Z,93.68
2023-04-02T03:41:04.365Z,93.74
2023-04-02T03:43:39.558Z,92.59
2023-04-02T03:46:34.270Z,92.87
2023-04-02T03:49:07.592Z,92.37
2023-04-02T03:51:52.658Z,92.77
2023-04-02T03:54:19.526Z,92.76
2023-04-02T03:56:47.477Z,92.41
2023-04-02T03:59:39.619Z,92.18
2023-04-02T04:02:27.724Z,92.58
2023-04-02T04:04:55.879Z,92.69
2023-04-02T04:07:32.946Z,92.20
2023-04-02T04:10:01.433Z,92.55
2023-04-02T04:12:33.126Z,92.03
2023-04-02T04:15:35.519Z,91.59
2023-04-02T04:18:10.453Z,91.97
2023-04-02T04:20:45.971Z,91.91
2023-04-02T04:23:30.072Z,91.34
2023-04-02T04:26:24.503Z,91.01
2023-04-02T04:29:12.422Z,90.46
2023-04-02T04:31:49.688Z,90.02
2023-04-02T04:34:29.903Z,89.77
2023-04-02T04:37:07.527Z,89.28
2023-04-02T04:39:43.079Z,90.30
2023-04-02T04:42:20.176Z,89.45
2023-04-02T04:44:55.566Z,89.56
2023-04-02T04:47:32.694Z,89.26
2023-04-02T04:50:07.417Z,89.26
2023-04-02T04:52:39.917Z,90.02
2023-04-02T04:55:35.477Z,89.75
2023-04-02T04:58:11.779Z,89.53
2023-04-02T05:00:56.352Z,90.61
2023-04-02T05:04:01.726Z,89.57
2023-04-02T05:06:30.309Z,89.47
2023-04-02T05:09:04.774Z,87.70
2023-04-02T05:11:38.150Z,88.00
2023-04-02T05:14:22.030Z,87.74
2023-04-02T05:16:56.046Z,88.00
2023-04-02T05:19:32.577Z,87.42
2023-04-02T05:22:12.167Z,86.86
2023-04-02T05:24:53.399Z,86.96
2023-04-02T05:27:31.495Z,87.11
2023-04-02T05:30:20.228Z,87.59
2023-04-02T05:32:54.324Z,87.86
2023-04-02T05:35:27.781Z,88.30
2023-04-02T05:37:54.811Z,87.54
2023-04-02T05:40:27.688Z,87.55
2023-04-02T05:42:55.891Z,87.44
2023-04-02T05:45:32.741Z,87.87
2023-04-02T05:48:09.083Z,87.56
2023-04-02T05:50:46.990Z,87.31
2023-04-02T05:53:23.870Z,87.01
2023-04-02T05:55:58.145Z,86.86
2023-04-02T05:58:38.329Z,86.23
2023-04-02T06:01:21.928Z,86.04
2023-04-02T06:04:00.848Z,85.79
2023-04-02T06:06:41.667Z,86.08
2023-04-02T06:09:28.866Z,85.67
2023-04-02T06:12:34.146Z,85.95
2023-04-02T06:15:01.189Z,86.16
2023-04-02T06:17:33.485Z,85.31
2023-04-02T06:20:02.486Z,85.19
2023-04-02T06:22:43.155Z,85.62
2023-04-02T06:25:19.734Z,85.79
2023-04-02T06:27:50.267Z,85.58
2023-04-02T06:30:25.807Z,85.48
2023-04-02T06:32:52.815Z,85.61
2023-04-02T06:35:20.711Z,85.74
2023-04-02T06:37:57.324Z,85.50
2023-04-02T06:40:45.730Z,85.42
2023-04-02T06:43:23.770Z,85.74
2023-04-02T06:46:43.285Z,85.23
2023-04-02T06:49:41.022Z,84.94
2023-04-02T06:52:21.738Z,84.66
2023-04-02T06:54:48.524Z,84.94
2023-04-02T06:57:16.197Z,84.74
2023-04-02T06:59:45.304Z,84.41
2023-04-02T07:02:19.023Z,84.52
2023-04-02T07:04:45.791Z,84.39
2023-04-02T07:07:14.081Z,84.66
2023-04-02T07:09:43.071Z,85.01
2023-04-02T07:12:14.096Z,84.65
2023-04-02T07:14:42.036Z,84.38
2023-04-02T07:17:16.810Z,84.54
2023-04-02T07:19:49.058Z,84.66
2023-04-02T07:22:19.255Z,84.86
2023-04-02T07:24:49.148Z,84.69
2023-04-02T07:27:15.839Z,84.52
2023-04-02T07:29:45.341Z,84.77
2023-04-02T07:32:13.342Z,84.96
2023-04-02T07:34:41.138Z,85.19
2023-04-02T07:37:08.379Z,85.21
2023-04-02T07:39:36.545Z,85.05
2023-04-02T07:42:04.296Z,85.40
2023-04-02T07:44:30.720Z,85.00
2023-04-02T07:46:57.301Z,85.09
2023-04-02T07:49:23.843Z,84.69
2023-04-02T07:51:51.647Z,83.63
2023-04-02T07:54:18.088Z,84.42
2023-04-02T07:56:44.556Z,83.72
2023-04-02T07:59:11.277Z,83.64
2023-04-02T08:01:37.890Z,83.93
2023-04-02T08:04:05.660Z,83.68
2023-04-02T08:06:32.184Z,83.74
2023-04-02T08:08:58.902Z,84.17
2023-04-02T08:11:25.493Z,83.79
2023-04-02T08:13:52.237Z,84.32
2023-04-02T08:16:18.847Z,83.75
2023-04-02T08:18:47.499Z,83.29
2023-04-02T08:21:15.874Z,83.30
2023-04-02T08:23:43.407Z,83.40
2023-04-02T08:26:09.933Z,83.32
2023-04-02T08:28:36.437Z,82.28
2023-04-02T08:31:04.587Z,82.40
2023-04-02T08:33:31.392Z,81.76
2023-04-02T08:35:58.018Z,81.73
2023-04-02T08:38:25.491Z,80.89
2023-04-02T08:40:56.497Z,80.27
2023-04-02T08:44:07.006Z,80.27
2023-04-02T08:46:41.309Z,80.84
2023-04-02T08:49:14.434Z,81.18
2023-04-02T08:51:41.500Z,81.05
2023-04-02T08:54:17.417Z,80.55
2023-04-02T08:56:51.921Z,81.53
2023-04-02T08:59:30.602Z,79.75
2023-04-02T09:02:17.082Z,80.01
2023-04-02T09:04:43.703Z,79.79
2023-04-02T09:07:16.482Z,79.66
2023-04-02T09:09:45.575Z,79.90
2023-04-02T09:12:18.950Z,78.82
2023-04-02T09:15:01.721Z,80.10
2023-04-02T09:17:29.213Z,79.33
2023-04-02T09:20:27.601Z,78.54
2023-04-02T09:22:55.067Z,78.49
2023-04-02T09:25:27.053Z,77.03
2023-04-02T09:27:56.651Z,75.85
2023-04-02T09:30:32.171Z,76.16
2023-04-02T09:33:07.510Z,76.68
2023-04-02T09:35:57.968Z,75.93
2023-04-02T09:38:30.501Z,75.91
2023-04-02T09:41:05.766Z,75.55
2023-04-02T09:43:36.807Z,75.67
2023-04-02T09:46:16.549Z,74.82
2023-04-02T09:48:58.034Z,73.29
2023-04-02T09:51:32.747Z,73.55
2023-04-02T09:54:01.904Z,71.50
2023-04-02T09:56:36.747Z,70.38
2023-04-02T09:59:12.276Z,70.11
2023-04-02T10:01:44.833Z,63.41
2023-04-02T10:04:44.550Z,60.21
2023-04-02T10:07:29.874Z,53.53
2023-04-02T10:10:01.992Z,53.64
2023-04-02T10:12:33.104Z,50.09
2023-04-02T10:15:01.270Z,47.77
2023-04-02T10:17:32.572Z,49.00
2023-04-02T10:20:06.331Z,48.55
2023-04-02T10:22:32.947Z,47.33
2023-04-02T10:24:59.622Z,45.23
2023-04-02T10:27:51.828Z,46.04
2023-04-02T10:30:27.288Z,41.60
2023-04-02T10:33:17.819Z,43.45
2023-04-02T10:35:53.547Z,44.55
2023-04-02T10:38:50.398Z,42.52
2023-04-02T10:41:31.488Z,41.68
2023-04-02T10:44:21.887Z,41.79
2023-04-02T10:47:31.120Z,40.51
2023-04-02T10:50:24.426Z,38.14
2023-04-02T10:53:15.889Z,39.37
2023-04-02T10:55:56.098Z,40.01
2023-04-02T10:58:26.906Z,39.91
2023-04-02T11:01:01.392Z,40.61
2023-04-02T11:03:47.133Z,40.35
2023-04-02T11:06:27.639Z,40.10
2023-04-02T11:09:02.225Z,40.04
2023-04-02T11:11:38.639Z,39.26
2023-04-02T11:14:23.692Z,40.70
2023-04-02T11:16:51.852Z,39.33
2023-04-02T11:19:24.102Z,40.37
2023-04-02T11:22:01.333Z,42.58
2023-04-02T11:24:32.912Z,39.74
2023-04-02T11:27:28.676Z,41.76
2023-04-02T11:30:04.112Z,39.89
2023-04-02T11:32:40.175Z,44.36
2023-04-02T11:35:31.624Z,47.36
2023-04-02T11:38:22.985Z,49.05
2023-04-02T11:40:57.906Z,49.68
2023-04-02T11:43:33.427Z,49.79
2023-04-02T11:46:18.653Z,49.69
2023-04-02T11:48:45.277Z,50.42
2023-04-02T11:51:21.416Z,50.94
2023-04-02T11:53:50.630Z,49.98
2023-04-02T11:56:19.767Z,50.59
2023-04-02T11:58:46.279Z,51.11
2023-04-02T12:01:24.472Z,50.72
2023-04-02T12:04:11.634Z,50.53
2023-04-02T12:06:49.055Z,50.48
2023-04-02T12:09:22.329Z,50.79
2023-04-02T12:11:51.984Z,51.10
2023-04-02T12:14:48.016Z,50.42
2023-04-02T12:17:28.458Z,49.22
2023-04-02T12:19:58.937Z,49.30
2023-04-02T12:22:29.014Z,50.16
2023-04-02T12:24:59.887Z,51.69
2023-04-02T12:27:29.312Z,49.78
2023-04-02T12:30:11.201Z,51.23
2023-04-02T12:32:37.730Z,51.63
2023-04-02T12:35:06.195Z,50.63
2023-04-02T12:37:32.754Z,50.93
2023-04-02T12:40:15.978Z,50.69
2023-04-02T12:42:42.430Z,50.00
2023-04-02T12:45:24.942Z,52.02
2023-04-02T12:47:53.620Z,50.96
2023-04-02T12:50:21.228Z,51.65
2023-04-02T12:52:51.234Z,50.33
2023-04-02T12:55:21.365Z,50.09
2023-04-02T12:57:49.996Z,50.29
2023-04-02T13:00:22.305Z,50.36
2023-04-02T13:02:51.869Z,51.03
2023-04-02T13:05:42.560Z,50.81
2023-04-02T13:08:27.934Z,51.85
2023-04-02T13:10:58.750Z,49.54
2023-04-02T13:13:32.886Z,50.77
2023-04-02T13:16:02.756Z,50.71
2023-04-02T13:18:32.221Z,50.69
2023-04-02T13:21:23.557Z,51.04
2023-04-02T13:23:50.023Z,50.84
2023-04-02T13:26:24.422Z,49.76
2023-04-02T13:29:15.642Z,49.58
2023-04-02T13:31:42.668Z,49.90
2023-04-02T13:34:09.260Z,50.13
2023-04-02T13:36:37.498Z,48.83
2023-04-02T13:39:04.776Z,48.97
2023-04-02T13:41:36.676Z,49.86
2023-04-02T13:44:03.498Z,49.71
2023-04-02T13:46:32.818Z,48.95
2023-04-02T13:48:59.852Z,50.52
2023-04-02T13:51:44.469Z,49.77
2023-04-02T13:54:17.208Z,50.24
2023-04-02T13:56:44.021Z,49.69
2023-04-02T13:59:10.847Z,49.36
2023-04-02T14:01:37.521Z,49.61
2023-04-02T14:04:05.631Z,50.31
2023-04-02T14:06:42.277Z,49.94
2023-04-02T14:09:47.852Z,50.81
2023-04-02T14:12:35.882Z,51.56
2023-04-02T14:15:36.530Z,50.25
2023-04-02T14:18:12.122Z,50.07
2023-04-02T14:21:04.709Z,49.08
2023-04-02T14:23:59.692Z,49.75
2023-04-02T14:26:39.612Z,50.31
2023-04-02T14:29:07.217Z,50.89
2023-04-02T14:31:41.137Z,51.29
2023-04-02T14:34:20.689Z,50.97
2023-04-02T14:36:57.622Z,50.54
2023-04-02T14:39:49.741Z,51.32
2023-04-02T14:42:22.133Z,50.89
2023-04-02T14:45:05.091Z,51.35
2023-04-02T14:47:41.234Z,49.51
2023-04-02T14:50:19.571Z,50.07
2023-04-02T14:52:50.030Z,51.96
2023-04-02T14:55:31.129Z,51.00
2023-04-02T14:58:01.555Z,50.50
2023-04-02T15:00:41.934Z,50.01
2023-04-02T15:03:18.143Z,49.84
2023-04-02T15:06:10.240Z,50.73
2023-04-02T15:08:52.349Z,49.48
2023-04-02T15:11:35.411Z,50.01
2023-04-02T15:14:11.098Z,50.52
2023-04-02T15:16:37.648Z,50.64
2023-04-02T15:19:12.178Z,50.00
2023-04-02T15:22:01.589Z,49.95
2023-04-02T15:24:42.541Z,51.32
2023-04-02T15:27:33.273Z,50.35
2023-04-02T15:29:59.710Z,50.71
2023-04-02T15:32:31.948Z,50.98
2023-04-02T15:35:39.725Z,50.27
2023-04-02T15:38:18.941Z,49.41
2023-04-02T15:41:04.245Z,50.35
2023-04-02T15:44:12.480Z,50.63
2023-04-02T15:46:58.059Z,49.71
2023-04-02T15:49:39.683Z,50.29
2023-04-02T15:52:46.324Z,50.41
2023-04-02T15:55:39.602Z,50.69
2023-04-02T15:58:11.785Z,50.13
2023-04-02T16:00:59.765Z,50.16
2023-04-02T16:03:51.752Z,51.19
2023-04-02T16:06:28.899Z,51.55
2023-04-02T16:09:33.890Z,51.39
2023-04-02T16:12:13.694Z,50.74
2023-04-02T16:14:42.268Z,50.59
2023-04-02T16:17:24.830Z,50.42
2023-04-02T16:20:05.711Z,50.90
2023-04-02T16:22:34.248Z,50.77
2023-04-02T16:25:06.840Z,51.17
2023-04-02T16:27:39.603Z,51.31
2023-04-02T16:30:24.138Z,52.09
2023-04-02T16:33:07.601Z,52.08
2023-04-02T16:35:56.645Z,50.63
2023-04-02T16:38:59.908Z,51.45
2023-04-02T16:41:38.397Z,52.45
2023-04-02T16:44:15.543Z,52.08
2023-04-02T16:47:23.033Z,52.41
2023-04-02T16:50:17.065Z,52.83
2023-04-02T16:53:04.690Z,52.88
2023-04-02T16:55:48.516Z,53.54
2023-04-02T16:58:39.878Z,53.94
2023-04-02T17:01:34.537Z,53.69
2023-04-02T17:04:04.083Z,53.31
2023-04-02T17:06:42.964Z,54.46
2023-04-02T17:09:48.812Z,54.25
2023-04-02T17:12:21.305Z,54.75
2023-04-02T17:14:57.336Z,55.17
2023-04-02T17:17:24.290Z,55.77
2023-04-02T17:19:56.467Z,56.38
2023-04-02T17:22:23.552Z,56.51
2023-04-02T17:25:04.346Z,56.93
2023-04-02T17:27:39.304Z,57.36
2023-04-02T17:30:17.187Z,57.36
2023-04-02T17:32:43.864Z,58.20
2023-04-02T17:35:18.653Z,57.74
2023-04-02T17:38:19.926Z,58.75
2023-04-02T17:41:04.416Z,58.05
2023-04-02T17:43:45.989Z,58.58
2023-04-02T17:46:34.674Z,58.73
2023-04-02T17:49:42.391Z,59.29
2023-04-02T17:52:31.348Z,59.19
2023-04-02T17:55:40.536Z,59.02
2023-04-02T17:58:22.899Z,59.60
2023-04-02T18:01:05.272Z,59.89
2023-04-02T18:03:39.657Z,59.83
2023-04-02T18:06:21.215Z,60.24
2023-04-02T18:09:05.745Z,60.99
2023-04-02T18:11:50.786Z,60.73
2023-04-02T18:14:20.279Z,61.05
2023-04-02T18:17:19.415Z,61.36
2023-04-02T18:19:57.563Z,61.61
2023-04-02T18:22:42.791Z,61.82
2023-04-02T18:25:31.916Z,61.83
2023-04-02T18:28:05.052Z,62.46
2023-04-02T18:30:40.616Z,62.15
2023-04-02T18:33:29.131Z,62.79
2023-04-02T18:36:13.932Z,62.82
2023-04-02T18:38:55.881Z,63.98
2023-04-02T18:41:51.223Z,63.93
2023-04-02T18:44:36.518Z,63.77
2023-04-02T18:47:32.114Z,64.40
2023-04-02T18:50:16.002Z,64.45
2023-04-02T18:52:42.824Z,64.60
2023-04-02T18:55:18.210Z,64.88
2023-04-02T18:57:48.674Z,65.20
2023-04-02T19:00:15.573Z,66.11
2023-04-02T19:02:55.620Z,65.17
2023-04-02T19:05:28.113Z,65.25
2023-04-02T19:08:02.382Z,65.32
2023-04-02T19:10:35.002Z,64.67
2023-04-02T19:13:01.519Z,65.38
2023-04-02T19:16:08.231Z,66.37
2023-04-02T19:19:14.686Z,66.68
2023-04-02T19:22:10.985Z,66.85
2023-04-02T19:24:53.358Z,67.96
2023-04-02T19:27:34.918Z,68.10
2023-04-02T19:30:28.554Z,68.73
2023-04-02T19:33:01.038Z,68.22
2023-04-02T19:35:46.472Z,68.43
2023-04-02T19:38:41.317Z,69.71
2023-04-02T19:41:19.976Z,69.49
2023-04-02T19:43:47.252Z,70.25
2023-04-02T19:46:14.040Z,70.67
2023-04-02T19:48:47.999Z,71.40
2023-04-02T19:51:14.523Z,70.24
2023-04-02T19:53:41.063Z,70.42
2023-04-02T19:56:07.538Z,70.59
2023-04-02T19:58:35.968Z,70.45
2023-04-02T20:01:02.539Z,70.40
2023-04-02T20:03:30.369Z,69.67
2023-04-02T20:05:59.317Z,69.59
2023-04-02T20:08:27.404Z,70.63
2023-04-02T20:10:54.413Z,70.60
2023-04-02T20:13:20.938Z,70.50
2023-04-02T20:15:47.423Z,70.82
2023-04-02T20:18:14.102Z,69.74
2023-04-02T20:20:40.708Z,69.80
2023-04-02T20:23:07.240Z,69.97
2023-04-02T20:25:33.693Z,69.88
2023-04-02T20:28:01.074Z,70.19
2023-04-02T20:30:27.690Z,69.79
2023-04-02T20:32:55.709Z,70.28
2023-04-02T20:35:22.236Z,69.59
2023-04-02T20:37:48.735Z,69.52
2023-04-02T20:40:15.332Z,70.67
2023-04-02T20:42:42.006Z,70.47
2023-04-02T20:45:09.374Z,69.91
2023-04-02T20:47:35.904Z,70.11
2023-04-02T20:50:02.537Z,71.06
2023-04-02T20:52:30.387Z,71.42
2023-04-02T20:54:57.310Z,71.22
2023-04-02T20:57:25.331Z,71.09
2023-04-02T20:59:51.984Z,71.81
2023-04-02T21:02:18.448Z,70.87
2023-04-02T21:04:45.039Z,71.05
2023-04-02T21:07:11.515Z,70.70
2023-04-02T21:09:38.013Z,71.16
2023-04-02T21:12:04.867Z,70.80
2023-04-02T21:14:35.858Z,70.82
2023-04-02T21:17:02.350Z,71.27
2023-04-02T21:19:28.986Z,70.19
2023-04-02T21:21:55.614Z,70.94
2023-04-02T21:24:22.123Z,70.75
2023-04-02T21:26:49.720Z,70.93
2023-04-02T21:29:16.442Z,70.33
2023-04-02T21:31:43.564Z,70.37
2023-04-02T21:34:14.461Z,70.63
2023-04-02T21:36:45.865Z,70.20
2023-04-02T21:39:20.476Z,70.61
2023-04-02T21:41:51.888Z,70.82
2023-04-02T21:44:20.992Z,70.16
2023-04-02T21:46:48.293Z,70.46
2023-04-02T21:49:18.356Z,70.55
2023-04-02T21:51:46.864Z,70.11
2023-04-02T21:54:13.804Z,70.47
2023-04-02T21:56:44.755Z,70.71
2023-04-02T21:59:13.192Z,69.94
2023-04-02T22:01:42.941Z,69.80
2023-04-02T22:04:14.853Z,70.39
2023-04-02T22:06:42.001Z,70.49
2023-04-02T22:09:11.864Z,71.04
2023-04-02T22:11:44.520Z,71.04
2023-04-02T22:14:11.436Z,70.98
2023-04-02T22:16:38.539Z,71.48
2023-04-02T22:19:08.473Z,71.72
2023-04-02T22:21:36.145Z,71.63
2023-04-02T22:24:09.082Z,71.29
2023-04-02T22:26:36.681Z,71.47
2023-04-02T22:29:04.339Z,71.80
2023-04-02T22:31:33.271Z,71.65
2023-04-02T22:34:00.012Z,71.78
2023-04-02T22:36:28.681Z,71.92
2023-04-02T22:38:55.838Z,72.32
2023-04-02T22:41:27.939Z,72.13
2023-04-02T22:43:59.159Z,71.69
2023-04-02T22:46:27.145Z,72.12
2023-04-02T22:48:54.232Z,72.16
2023-04-02T22:51:22.551Z,72.35
2023-04-02T22:53:49.642Z,72.55
2023-04-02T22:56:18.904Z,72.46
2023-04-02T22:58:45.566Z,72.76
2023-04-02T23:01:16.618Z,73.05
2023-04-02T23:03:43.595Z,72.84
2023-04-02T23:06:12.587Z,72.77
2023-04-02T23:08:40.388Z,72.97
2023-04-02T23:11:19.681Z,73.23
2023-04-02T23:13:48.212Z,73.26
2023-04-02T23:16:16.216Z,73.15
2023-04-02T23:18:45.680Z,73.15
2023-04-02T23:21:12.090Z,74.20
2023-04-02T23:23:38.653Z,73.23
2023-04-02T23:26:11.261Z,73.31
2023-04-02T23:28:39.813Z,73.33
2023-04-02T23:31:09.113Z,72.80
2023-04-02T23:33:35.698Z,73.02
2023-04-02T23:36:15.905Z,73.07
2023-04-02T23:38:42.525Z,73.02
2023-04-02T23:41:14.518Z,72.99
2023-04-02T23:43:41.296Z,72.56
2023-04-02T23:46:08.290Z,72.71
2023-04-02T23:48:34.786Z,72.93
2023-04-02T23:51:01.353Z,72.99
2023-04-02T23:53:27.789Z,72.96
2023-04-02T23:55:54.203Z,72.93
2023-04-02T23:58:20.844Z,73.37
